createdAt,value
2018-08-23T00:00:47.080Z,11.57
2018-08-23T00:03:20.855Z,12.23
2018-08-23T00:05:55.642Z,12.20
2018-08-23T00:08:24.660Z,12.93
2018-08-23T00:10:53.864Z,12.23
2018-08-23T00:13:22.724Z,13.07
2018-08-23T00:15:51.179Z,13.57
2018-08-23T00:18:19.588Z,12.23
2018-08-23T00:20:48.017Z,13.20
2018-08-23T00:23:16.363Z,12.57
2018-08-23T00:25:44.800Z,13.47
2018-08-23T00:28:13.185Z,12.93
2018-08-23T00:30:43.532Z,13.17
2018-08-23T00:33:11.892Z,12.97
2018-08-23T00:35:40.287Z,12.27
2018-08-23T00:38:08.826Z,13.53
2018-08-23T00:40:39.583Z,11.77
2018-08-23T00:43:09.289Z,13.13
2018-08-23T00:45:37.694Z,11.77
2018-08-23T00:48:06.099Z,13.00
2018-08-23T00:50:58.245Z,12.20
2018-08-23T00:53:27.375Z,13.33
2018-08-23T00:56:12.241Z,13.93
2018-08-23T00:58:45.468Z,12.33
2018-08-23T01:01:14.307Z,13.97
2018-08-23T01:03:43.311Z,13.10
2018-08-23T01:06:11.722Z,13.00
2018-08-23T01:08:40.138Z,12.50
2018-08-23T01:11:09.449Z,12.60
2018-08-23T01:13:37.863Z,13.17
2018-08-23T01:16:06.282Z,12.37
2018-08-23T01:18:34.667Z,13.83
2018-08-23T01:21:10.418Z,12.47
2018-08-23T01:23:39.642Z,13.57
2018-08-23T01:26:09.037Z,12.90
2018-08-23T01:28:37.422Z,13.00
2018-08-23T01:31:22.458Z,12.30
2018-08-23T01:33:59.821Z,13.50
2018-08-23T01:36:31.626Z,13.10
2018-08-23T01:39:04.887Z,13.27
2018-08-23T01:41:33.275Z,12.93
2018-08-23T01:44:01.611Z,13.93
2018-08-23T01:46:36.152Z,13.37
2018-08-23T01:49:05.858Z,14.13
2018-08-23T01:51:34.433Z,14.07
2018-08-23T01:54:02.893Z,13.33
2018-08-23T01:56:31.287Z,13.27
2018-08-23T01:58:59.717Z,13.10
2018-08-23T02:01:28.054Z,13.10
2018-08-23T02:03:56.400Z,13.47
2018-08-23T02:06:29.030Z,14.17
2018-08-23T02:08:57.395Z,13.97
2018-08-23T02:11:25.754Z,13.00
2018-08-23T02:13:54.150Z,13.63
2018-08-23T02:16:22.785Z,13.70
2018-08-23T02:18:51.236Z,13.80
2018-08-23T02:21:19.610Z,13.00
2018-08-23T02:23:52.455Z,12.70
2018-08-23T02:26:20.831Z,13.53
2018-08-23T02:28:50.129Z,13.20
2018-08-23T02:31:18.662Z,12.83
2018-08-23T02:33:46.978Z,12.80
2018-08-23T02:36:16.291Z,13.00
2018-08-23T02:38:45.599Z,13.50
2018-08-23T02:41:14.074Z,11.90
2018-08-23T02:43:42.739Z,12.83
2018-08-23T02:46:11.110Z,11.63
2018-08-23T02:48:39.470Z,13.03
2018-08-23T02:51:07.923Z,12.27
2018-08-23T02:53:46.309Z,12.37
2018-08-23T02:56:19.457Z,11.63
2018-08-23T02:59:01.214Z,11.83
2018-08-23T03:01:32.304Z,11.60
2018-08-23T03:04:14.897Z,12.23
2018-08-23T03:06:49.803Z,10.90
2018-08-23T03:09:21.033Z,12.20
2018-08-23T03:11:50.714Z,11.10
2018-08-23T03:14:20.275Z,11.20
2018-08-23T03:16:54.093Z,11.43
2018-08-23T03:19:22.467Z,11.37
2018-08-23T03:21:58.522Z,11.80
2018-08-23T03:24:27.075Z,10.83
2018-08-23T03:26:55.419Z,10.97
2018-08-23T03:29:23.780Z,10.17
2018-08-23T03:31:52.168Z,11.70
2018-08-23T03:34:20.595Z,11.40
2018-08-23T03:36:48.914Z,10.17
2018-08-23T03:39:17.250Z,11.90
2018-08-23T03:41:45.643Z,11.97
2018-08-23T03:44:25.177Z,11.50
2018-08-23T03:46:54.683Z,11.60
2018-08-23T03:49:34.159Z,11.30
2018-08-23T03:52:02.465Z,9.83
2018-08-23T03:54:31.353Z,10.50
2018-08-23T03:57:13.404Z,10.43
2018-08-23T03:59:47.080Z,11.40
2018-08-23T04:02:16.561Z,11.90
2018-08-23T04:04:46.801Z,10.97
2018-08-23T04:07:15.355Z,10.77
2018-08-23T04:09:43.959Z,10.57
2018-08-23T04:12:12.304Z,10.83
2018-08-23T04:14:40.757Z,11.53
2018-08-23T04:17:10.442Z,11.13
2018-08-23T04:19:53.395Z,10.97
2018-08-23T04:22:21.778Z,11.73
2018-08-23T04:24:54.393Z,13.20
2018-08-23T04:27:22.888Z,10.83
2018-08-23T04:29:51.245Z,11.13
2018-08-23T04:32:29.257Z,10.50
2018-08-23T04:34:59.561Z,10.03
2018-08-23T04:37:28.535Z,10.70
2018-08-23T04:40:02.136Z,10.33
2018-08-23T04:42:30.504Z,10.70
2018-08-23T04:45:08.014Z,11.77
2018-08-23T04:47:37.790Z,10.10
2018-08-23T04:50:06.135Z,10.10
2018-08-23T04:52:34.651Z,10.33
2018-08-23T04:55:03.111Z,10.10
2018-08-23T04:57:31.455Z,9.90
2018-08-23T04:59:59.854Z,9.90
2018-08-23T05:02:28.200Z,9.60
2018-08-23T05:04:56.540Z,11.10
2018-08-23T05:07:24.936Z,10.30
2018-08-23T05:09:53.351Z,10.50
2018-08-23T05:12:21.777Z,10.90
2018-08-23T05:14:50.173Z,9.53
2018-08-23T05:17:18.532Z,10.10
2018-08-23T05:19:46.905Z,9.37
2018-08-23T05:22:15.403Z,9.43
2018-08-23T05:24:43.757Z,10.70
2018-08-23T05:27:12.718Z,9.77
2018-08-23T05:29:41.134Z,10.13
2018-08-23T05:32:09.457Z,9.70
2018-08-23T05:34:37.808Z,10.10
2018-08-23T05:37:07.808Z,9.60
2018-08-23T05:39:47.936Z,9.20
2018-08-23T05:42:19.412Z,10.30
2018-08-23T05:44:47.775Z,10.17
2018-08-23T05:47:16.073Z,8.97
2018-08-23T05:49:44.419Z,10.03
2018-08-23T05:52:12.868Z,9.10
2018-08-23T05:54:41.217Z,9.30
2018-08-23T05:57:10.618Z,9.37
2018-08-23T05:59:38.988Z,8.40
2018-08-23T06:02:07.400Z,12.07
2018-08-23T06:04:42.606Z,9.20
2018-08-23T06:07:11.143Z,9.90
2018-08-23T06:09:41.394Z,9.27
2018-08-23T06:12:09.781Z,10.00
2018-08-23T06:14:38.149Z,10.43
2018-08-23T06:17:06.646Z,9.00
2018-08-23T06:19:35.004Z,8.87
2018-08-23T06:22:03.328Z,8.10
2018-08-23T06:24:31.935Z,7.70
2018-08-23T06:27:01.405Z,7.70
2018-08-23T06:29:31.170Z,8.33
2018-08-23T06:32:10.407Z,7.70
2018-08-23T06:34:46.176Z,7.90
2018-08-23T06:37:15.666Z,7.47
2018-08-23T06:39:44.079Z,8.20
2018-08-23T06:42:12.482Z,8.13
2018-08-23T06:44:51.574Z,7.83
2018-08-23T06:47:21.503Z,7.57
2018-08-23T06:49:51.155Z,7.73
2018-08-23T06:52:30.573Z,6.53
2018-08-23T06:54:59.013Z,7.40
2018-08-23T06:57:30.351Z,7.93
2018-08-23T06:59:58.796Z,7.10
2018-08-23T07:02:27.211Z,6.70
2018-08-23T07:04:55.661Z,7.17
2018-08-23T07:07:24.002Z,6.33
2018-08-23T07:09:52.345Z,6.53
2018-08-23T07:12:21.506Z,7.37
2018-08-23T07:14:50.956Z,5.90
2018-08-23T07:17:24.787Z,6.30
2018-08-23T07:19:53.600Z,6.20
2018-08-23T07:22:26.205Z,6.60
2018-08-23T07:24:56.083Z,6.50
2018-08-23T07:27:24.493Z,6.43
2018-08-23T07:29:54.990Z,6.17
2018-08-23T07:32:24.687Z,6.20
2018-08-23T07:35:01.260Z,5.83
2018-08-23T07:37:30.348Z,5.97
2018-08-23T07:40:04.184Z,5.60
2018-08-23T07:42:33.423Z,5.63
2018-08-23T07:45:02.351Z,5.50
2018-08-23T07:47:31.496Z,6.00
2018-08-23T07:50:01.001Z,6.20
2018-08-23T07:52:30.844Z,6.20
2018-08-23T07:54:59.373Z,6.00
2018-08-23T07:57:31.108Z,5.97
2018-08-23T08:00:00.609Z,6.03
2018-08-23T08:02:29.268Z,6.03
2018-08-23T08:04:58.301Z,5.40
2018-08-23T08:07:27.621Z,6.50
2018-08-23T08:09:56.607Z,5.93
2018-08-23T08:12:38.068Z,5.90
2018-08-23T08:15:08.758Z,6.23
2018-08-23T08:17:37.166Z,5.40
2018-08-23T08:20:06.930Z,6.70
2018-08-23T08:22:35.278Z,5.93
2018-08-23T08:25:09.976Z,6.20
2018-08-23T08:27:38.861Z,6.53
2018-08-23T08:30:09.088Z,7.13
2018-08-23T08:32:37.401Z,6.50
2018-08-23T08:35:05.931Z,5.80
2018-08-23T08:37:34.259Z,5.50
2018-08-23T08:40:02.705Z,6.10
2018-08-23T08:42:32.493Z,5.17
2018-08-23T08:45:07.093Z,9.07
2018-08-23T08:47:35.502Z,6.80
2018-08-23T08:50:03.923Z,6.10
2018-08-23T08:52:32.344Z,6.10
2018-08-23T08:55:00.694Z,6.07
2018-08-23T08:57:31.967Z,6.37
2018-08-23T09:00:00.762Z,6.93
2018-08-23T09:02:31.085Z,6.53
2018-08-23T09:04:59.555Z,6.10
2018-08-23T09:07:32.308Z,6.57
2018-08-23T09:10:00.803Z,6.43
2018-08-23T09:12:32.397Z,6.13
2018-08-23T09:15:00.766Z,6.63
2018-08-23T09:17:38.688Z,6.10
2018-08-23T09:20:09.185Z,6.03
2018-08-23T09:22:41.901Z,6.00
2018-08-23T09:25:20.746Z,6.23
2018-08-23T09:27:49.582Z,6.30
2018-08-23T09:30:23.339Z,6.47
2018-08-23T09:32:51.831Z,6.73
2018-08-23T09:35:20.762Z,6.57
2018-08-23T09:37:55.610Z,6.27
2018-08-23T09:40:25.238Z,7.40
2018-08-23T09:42:53.675Z,6.57
2018-08-23T09:45:22.085Z,6.43
2018-08-23T09:47:50.390Z,6.60
2018-08-23T09:50:18.774Z,6.70
2018-08-23T09:52:48.256Z,6.83
2018-08-23T09:55:17.802Z,7.40
2018-08-23T09:57:46.439Z,7.20
2018-08-23T10:00:18.996Z,6.33
2018-08-23T10:02:52.807Z,6.33
2018-08-23T10:05:26.581Z,7.10
2018-08-23T10:08:00.265Z,7.00
2018-08-23T10:10:34.035Z,7.43
2018-08-23T10:13:07.829Z,6.50
2018-08-23T10:15:44.389Z,6.97
2018-08-23T10:18:18.205Z,8.17
2018-08-23T10:20:54.512Z,6.20
2018-08-23T10:23:24.592Z,6.50
2018-08-23T10:25:55.262Z,5.83
2018-08-23T10:28:27.818Z,6.17
2018-08-23T10:30:56.977Z,6.70
2018-08-23T10:33:25.725Z,7.57
2018-08-23T10:35:56.874Z,6.93
2018-08-23T10:38:26.753Z,6.90
2018-08-23T10:40:59.396Z,6.87
2018-08-23T10:43:33.192Z,6.40
2018-08-23T10:46:04.433Z,6.50
2018-08-23T10:48:32.925Z,6.60
2018-08-23T10:51:01.307Z,6.30
2018-08-23T10:53:29.521Z,6.70
2018-08-23T10:55:57.809Z,6.30
2018-08-23T10:58:26.155Z,6.67
2018-08-23T11:00:54.502Z,12.10
2018-08-23T11:03:22.866Z,6.53
2018-08-23T11:05:51.345Z,7.40
2018-08-23T11:08:21.589Z,7.43
2018-08-23T11:10:55.357Z,7.70
2018-08-23T11:13:29.081Z,6.63
2018-08-23T11:16:02.882Z,7.33
2018-08-23T11:18:36.685Z,7.80
2018-08-23T11:21:05.001Z,7.10
2018-08-23T11:23:33.385Z,7.77
2018-08-23T11:26:01.971Z,7.43
2018-08-23T11:28:30.296Z,7.03
2018-08-23T11:31:01.253Z,6.87
2018-08-23T11:33:29.613Z,7.43
2018-08-23T11:35:58.021Z,6.73
2018-08-23T11:38:26.464Z,7.90
2018-08-23T11:40:54.839Z,7.63
2018-08-23T11:43:23.247Z,6.50
2018-08-23T11:46:02.021Z,7.27
2018-08-23T11:48:30.572Z,7.17
2018-08-23T11:50:59.780Z,7.33
2018-08-23T11:53:28.427Z,6.40
2018-08-23T11:55:56.545Z,8.07
2018-08-23T11:58:25.128Z,6.87
2018-08-23T12:00:58.084Z,7.53
2018-08-23T12:03:26.506Z,7.53
2018-08-23T12:05:54.861Z,7.93
2018-08-23T12:08:23.234Z,7.30
2018-08-23T12:10:52.703Z,8.10
2018-08-23T12:13:21.202Z,8.90
2018-08-23T12:15:49.628Z,9.77
2018-08-23T12:18:18.007Z,8.00
2018-08-23T12:20:46.310Z,8.17
2018-08-23T12:23:14.653Z,8.50
2018-08-23T12:25:43.107Z,8.53
2018-08-23T12:28:16.754Z,8.03
2018-08-23T12:30:45.183Z,7.80
2018-08-23T12:33:13.604Z,8.50
2018-08-23T12:35:41.910Z,7.70
2018-08-23T12:38:17.504Z,8.23
2018-08-23T12:40:51.351Z,8.03
2018-08-23T12:43:21.943Z,8.57
2018-08-23T12:45:50.310Z,7.47
2018-08-23T12:48:18.682Z,8.23
2018-08-23T12:50:47.183Z,8.37
2018-08-23T12:53:15.583Z,8.70
2018-08-23T12:55:43.909Z,8.53
2018-08-23T12:58:13.402Z,8.70
2018-08-23T13:00:42.712Z,7.53
2018-08-23T13:03:11.382Z,8.50
2018-08-23T13:05:40.148Z,8.27
2018-08-23T13:08:08.667Z,7.90
2018-08-23T13:10:37.639Z,8.27
2018-08-23T13:13:06.317Z,8.30
2018-08-23T13:15:34.946Z,8.27
2018-08-23T13:18:04.043Z,7.90
2018-08-23T13:20:32.427Z,8.37
2018-08-23T13:23:00.805Z,8.80
2018-08-23T13:25:29.225Z,9.03
2018-08-23T13:27:57.689Z,9.53
2018-08-23T13:30:26.139Z,9.03
2018-08-23T13:32:54.413Z,9.10
2018-08-23T13:35:24.648Z,9.43
2018-08-23T13:37:53.060Z,8.70
2018-08-23T13:40:21.424Z,8.73
2018-08-23T13:42:50.325Z,9.47
2018-08-23T13:45:18.732Z,9.37
2018-08-23T13:47:47.103Z,8.70
2018-08-23T13:50:15.446Z,9.80
2018-08-23T13:52:43.964Z,9.73
2018-08-23T13:55:12.286Z,9.37
2018-08-23T13:57:40.655Z,9.87
2018-08-23T14:00:13.272Z,9.83
2018-08-23T14:02:41.837Z,9.63
2018-08-23T14:05:10.265Z,9.17
2018-08-23T14:07:38.735Z,9.43
2018-08-23T14:10:07.271Z,10.07
2018-08-23T14:12:35.714Z,10.40
2018-08-23T14:15:04.117Z,9.20
2018-08-23T14:17:32.507Z,8.77
2018-08-23T14:20:00.873Z,9.33
2018-08-23T14:22:29.227Z,9.50
2018-08-23T14:24:57.691Z,8.53
2018-08-23T14:27:26.063Z,9.10
2018-08-23T14:29:54.352Z,9.87
2018-08-23T14:32:22.811Z,9.43
2018-08-23T14:34:51.241Z,9.10
2018-08-23T14:37:19.615Z,8.80
2018-08-23T14:39:48.134Z,8.87
2018-08-23T14:42:16.540Z,8.33
2018-08-23T14:44:44.843Z,8.60
2018-08-23T14:47:18.433Z,8.43
2018-08-23T14:49:46.890Z,8.53
2018-08-23T14:52:15.347Z,8.03
2018-08-23T14:54:43.869Z,8.23
2018-08-23T14:57:17.600Z,7.93
2018-08-23T14:59:45.933Z,8.67
2018-08-23T15:02:14.517Z,8.53
2018-08-23T15:04:47.635Z,7.63
2018-08-23T15:07:16.634Z,7.83
2018-08-23T15:09:45.004Z,9.13
2018-08-23T15:12:13.387Z,6.00
2018-08-23T15:14:41.715Z,6.90
2018-08-23T15:17:11.485Z,6.30
2018-08-23T15:19:40.213Z,6.33
2018-08-23T15:22:09.105Z,7.10
2018-08-23T15:24:37.600Z,6.63
2018-08-23T15:27:06.495Z,6.00
2018-08-23T15:29:34.727Z,4.63
2018-08-23T15:32:03.311Z,4.87
2018-08-23T15:34:31.786Z,5.10
2018-08-23T15:37:00.130Z,4.73
2018-08-23T15:39:28.508Z,5.60
2018-08-23T15:41:56.958Z,5.83
2018-08-23T15:44:25.357Z,8.20
2018-08-23T15:46:53.759Z,9.23
2018-08-23T15:49:22.169Z,6.20
2018-08-23T15:51:50.560Z,6.90
2018-08-23T15:54:19.988Z,10.50
2018-08-23T15:56:48.375Z,6.20
2018-08-23T15:59:16.779Z,6.60
2018-08-23T16:01:45.185Z,6.40
2018-08-23T16:04:13.505Z,6.07
2018-08-23T16:06:42.013Z,6.93
2018-08-23T16:09:12.864Z,7.57
2018-08-23T16:11:42.148Z,7.60
2018-08-23T16:14:10.534Z,9.57
2018-08-23T16:16:44.419Z,7.00
2018-08-23T16:20:16.209Z,6.93
2018-08-23T16:22:45.107Z,6.63
2018-08-23T16:25:13.678Z,6.57
2018-08-23T16:27:42.155Z,6.30
2018-08-23T16:30:10.695Z,6.60
2018-08-23T16:32:39.226Z,6.63
2018-08-23T16:35:07.618Z,6.70
2018-08-23T16:37:36.165Z,7.70
2018-08-23T16:40:05.079Z,6.80
2018-08-23T16:42:33.554Z,6.77
2018-08-23T16:45:02.120Z,6.60
2018-08-23T16:47:30.675Z,6.37
2018-08-23T16:49:59.105Z,7.10
2018-08-23T16:52:27.506Z,6.40
2018-08-23T16:54:56.021Z,6.33
2018-08-23T16:57:24.443Z,6.90
2018-08-23T16:59:52.895Z,6.47
2018-08-23T17:02:21.420Z,6.03
2018-08-23T17:04:49.817Z,5.93
2018-08-23T17:07:18.201Z,5.93
2018-08-23T17:09:46.587Z,7.47
2018-08-23T17:12:15.029Z,6.43
2018-08-23T17:14:43.446Z,8.03
2018-08-23T17:17:18.050Z,7.50
2018-08-23T17:19:46.488Z,5.50
2018-08-23T17:22:14.917Z,6.80
2018-08-23T17:24:43.336Z,5.80
2018-08-23T17:27:11.760Z,7.20
2018-08-23T17:29:40.135Z,8.47
2018-08-23T17:32:08.783Z,6.43
2018-08-23T17:34:37.096Z,6.33
2018-08-23T17:37:05.667Z,5.97
2018-08-23T17:39:34.003Z,4.80
2018-08-23T17:42:02.338Z,6.70
2018-08-23T17:44:30.650Z,5.70
2018-08-23T17:46:59.050Z,4.70
2018-08-23T17:49:27.509Z,6.33
2018-08-23T17:51:55.893Z,4.60
2018-08-23T17:54:24.280Z,4.73
2018-08-23T17:56:52.627Z,4.87
2018-08-23T17:59:21.111Z,4.47
2018-08-23T18:01:49.446Z,5.50
2018-08-23T18:04:17.809Z,4.40
2018-08-23T18:06:46.429Z,4.63
2018-08-23T18:09:14.932Z,4.80
2018-08-23T18:11:43.364Z,4.83
2018-08-23T18:14:11.739Z,4.50
2018-08-23T18:16:45.393Z,6.50
2018-08-23T18:19:13.751Z,5.57
2018-08-23T18:21:42.718Z,9.63
2018-08-23T18:24:11.271Z,5.97
2018-08-23T18:26:39.629Z,4.07
2018-08-23T18:29:08.071Z,4.30
2018-08-23T18:31:36.454Z,6.10
2018-08-23T18:34:05.277Z,6.87
2018-08-23T18:36:33.790Z,6.60
2018-08-23T18:39:02.609Z,5.57
2018-08-23T18:41:30.994Z,4.87
2018-08-23T18:43:59.388Z,5.47
2018-08-23T18:46:27.705Z,5.83
2018-08-23T18:48:59.059Z,5.63
2018-08-23T18:51:29.273Z,4.90
2018-08-23T18:53:58.169Z,5.60
2018-08-23T18:56:27.050Z,5.67
2018-08-23T18:58:55.810Z,5.80
2018-08-23T19:01:24.212Z,5.63
2018-08-23T19:03:52.989Z,5.53
2018-08-23T19:06:25.606Z,5.33
2018-08-23T19:08:54.032Z,5.90
2018-08-23T19:11:22.452Z,5.33
2018-08-23T19:13:50.848Z,5.00
2018-08-23T19:16:24.817Z,4.80
2018-08-23T19:18:53.471Z,4.83
2018-08-23T19:21:21.830Z,5.50
2018-08-23T19:23:50.260Z,7.30
2018-08-23T19:26:18.637Z,4.70
2018-08-23T19:28:46.999Z,5.17
2018-08-23T19:31:15.448Z,4.83
2018-08-23T19:33:43.921Z,4.37
2018-08-23T19:36:12.395Z,5.00
2018-08-23T19:38:41.563Z,5.30
2018-08-23T19:41:09.976Z,4.47
2018-08-23T19:43:38.427Z,4.00
2018-08-23T19:46:12.263Z,4.80
2018-08-23T19:48:41.152Z,4.90
2018-08-23T19:51:09.513Z,4.83
2018-08-23T19:53:37.874Z,5.20
2018-08-23T19:56:06.917Z,4.37
2018-08-23T19:58:35.422Z,4.63
2018-08-23T20:01:03.852Z,5.07
2018-08-23T20:03:32.214Z,4.10
2018-08-23T20:06:00.713Z,4.70
2018-08-23T20:08:29.114Z,4.37
2018-08-23T20:10:57.522Z,4.13
2018-08-23T20:13:25.931Z,4.90
2018-08-23T20:15:54.782Z,4.90
2018-08-23T20:18:23.749Z,5.13
2018-08-23T20:20:52.561Z,4.20
2018-08-23T20:23:21.277Z,3.97
2018-08-23T20:25:49.933Z,4.10
2018-08-23T20:28:19.348Z,4.67
2018-08-23T20:30:48.656Z,4.83
2018-08-23T20:33:18.758Z,5.03
2018-08-23T20:35:47.268Z,4.53
2018-08-23T20:38:15.674Z,4.37
2018-08-23T20:40:44.061Z,4.83
2018-08-23T20:43:12.378Z,4.67
2018-08-23T20:45:40.855Z,3.97
2018-08-23T20:48:09.170Z,4.47
2018-08-23T20:50:37.605Z,3.80
2018-08-23T20:53:06.001Z,4.80
2018-08-23T20:55:34.353Z,4.60
2018-08-23T20:58:03.048Z,4.70
2018-08-23T21:00:31.475Z,6.40
2018-08-23T21:02:59.936Z,5.00
2018-08-23T21:05:28.355Z,4.20
2018-08-23T21:07:57.751Z,5.20
2018-08-23T21:10:26.289Z,4.80
2018-08-23T21:12:54.721Z,4.43
2018-08-23T21:15:23.135Z,4.40
2018-08-23T21:17:51.620Z,4.77
2018-08-23T21:20:20.057Z,4.50
2018-08-23T21:22:48.562Z,3.90
2018-08-23T21:25:17.102Z,4.23
2018-08-23T21:27:47.050Z,4.40
2018-08-23T21:30:16.173Z,4.30
2018-08-23T21:32:44.909Z,4.20
2018-08-23T21:35:13.438Z,4.40
2018-08-23T21:37:41.789Z,4.50
2018-08-23T21:40:10.074Z,4.20
2018-08-23T21:42:38.641Z,4.43
2018-08-23T21:45:07.327Z,4.20
2018-08-23T21:47:35.784Z,4.43
2018-08-23T21:50:04.349Z,4.03
2018-08-23T21:52:32.778Z,3.83
2018-08-23T21:55:01.174Z,4.10
2018-08-23T21:57:29.609Z,3.90
2018-08-23T21:59:57.975Z,3.80
2018-08-23T22:02:26.404Z,3.90
2018-08-23T22:04:56.051Z,4.50
2018-08-23T22:07:24.448Z,4.13
2018-08-23T22:09:54.121Z,4.50
2018-08-23T22:12:23.550Z,4.20
2018-08-23T22:14:53.072Z,4.23
2018-08-23T22:17:22.063Z,4.10
2018-08-23T22:19:51.241Z,4.40
2018-08-23T22:22:19.641Z,4.97
2018-08-23T22:24:48.011Z,5.23
2018-08-23T22:27:16.472Z,5.00
2018-08-23T22:29:45.084Z,4.40
2018-08-23T22:32:13.548Z,4.13
2018-08-23T22:34:41.940Z,4.20
2018-08-23T22:37:10.446Z,4.57
2018-08-23T22:39:38.896Z,4.70
2018-08-23T22:42:07.255Z,4.27
2018-08-23T22:44:35.660Z,4.33
2018-08-23T22:47:04.091Z,5.13
2018-08-23T22:49:32.483Z,4.80
2018-08-23T22:52:00.890Z,5.07
2018-08-23T22:54:29.225Z,5.10
2018-08-23T22:56:57.683Z,4.77
2018-08-23T22:59:26.056Z,4.10
2018-08-23T23:01:54.410Z,4.93
2018-08-23T23:04:27.649Z,5.03
2018-08-23T23:06:56.861Z,4.67
2018-08-23T23:09:25.299Z,4.63
2018-08-23T23:11:53.683Z,5.10
2018-08-23T23:14:22.101Z,5.13
2018-08-23T23:16:55.332Z,5.10
2018-08-23T23:19:24.572Z,4.37
2018-08-23T23:21:52.904Z,5.40
2018-08-23T23:24:26.683Z,4.63
2018-08-23T23:26:56.209Z,4.83
2018-08-23T23:29:25.124Z,4.80
2018-08-23T23:31:53.548Z,4.97
2018-08-23T23:34:21.918Z,4.30
2018-08-23T23:36:50.269Z,4.67
2018-08-23T23:39:18.662Z,5.27
2018-08-23T23:41:47.009Z,5.00
2018-08-23T23:44:15.409Z,4.50
2018-08-23T23:46:43.763Z,4.20
2018-08-23T23:49:12.162Z,4.00
2018-08-23T23:51:41.045Z,3.83
2018-08-23T23:54:09.683Z,4.20
2018-08-23T23:56:38.121Z,4.90
2018-08-23T23:59:06.867Z,4.57
